Los Angeles, California
Traffic Map
Current Weather Conditions
Los Angeles, California
Clear
Clear
30°
Feels Like: 30°
Wind Chill: 30° Ceiling: Unl
Heat Index: 30° Visibility: 10mi
Dew Point: 17° Wind: 0mph
Humidity: 46% Direction: ° ()
Pressure: 29.82in Gusts: 0mph
Raw Report DataKCQT 291747Z AUTO 00000KT 10SM CLR 30/17 A2982 RMK AO2 SLP095 T03000172 10300 20206 55003
Traffic Incident Summary
Active as of:
Severity:
Category:
InformationThere was an issue retrieving the traffic information for this location. Please try a different location or try again shortly.
Advertisements
Track Severe Weather on mobile